Search for airport 
image banner adimage banner adimage banner ad
image banner ad

KNTD - Point Mugu Nas (Naval Base Ventura Co)

Located in Oxnard, United States

ICAO - NTD, IATA -

Data provided by Airmate  

General information

Coordinates: N34°7'9" W119°7'11"
Elevation is 13 feet MSL.
Magnetic variation is 12° East
View others Airports in California

Operational data

Special qualification required
Current time UTC:
Current local time:
Weather
METAR: KNTD 141152Z AUTO 00000KT 6SM BR CLR 14/13 A2991 RMK AO2 SLP129 T01440128 10150 20139 53002 PWINO CHINO N VISNO N $
TAF: TAF KNTD 1407/1507 VRB06KT 9000 BR FEW005 SCT200 QNH2988INS TEMPO 1410/1416 3200 BR OVC003 FM141700 23006KT 9999 FEW010 QNH2991INS FM142000 27009KT 9999 SKC QNH2983INS FM150400 VRB05KT 9999 SKC QNH2984INS LAST NO AMDS AFT 1407 NEXT 1415 T13/1413Z T23/1422Z FS30020
View NOTAMs / SUP AIP / TFR affecting this airport [VIEW]
Communications frequencies: [VIEW]

Runways:

RWY identifierQFULength (ft)Width (ft)SurfaceLDA (ft)
0344°11102200ASPH
21224°11102200ASPH
09105°5502200ASPH
27285°5502200ASPH

Airport contact information

Address: Oxnard United States

Satellite view of KNTD